Time;durP1;ratioP1;P1;durP2;ratioP2;P2;SDS_P1;SDS_P2;PMS_P1;PMS_P2;Temp;Humidity;BMP_temperature;BMP_pressure;BME280_temperature;BME280_humidity;BME280_pressure;Samples;Min_cycle;Max_cycle;Signal;HPM_P1;HPM_P2
2022/04/16 00:02:20;;;;;;;4.43;2.85;;;;;;;23.17;44.88;100549.69;20468506;28;97259;-76
2022/04/16 00:12:21;;;;;;;3.07;2.77;;;;;;;23.15;45.35;100543.66;20470012;28;102222;-77
2022/04/16 00:22:23;;;;;;;4.32;2.70;;;;;;;23.12;45.08;100542.13;20465383;28;97643;-77
2022/04/16 00:32:26;;;;;;;3.33;2.92;;;;;;;23.10;45.07;100540.56;20465710;28;97090;-76
2022/04/16 00:42:40;;;;;;;2.80;2.58;;;;;;;23.08;44.84;100540.69;20467647;28;98236;-77
2022/04/16 00:52:41;;;;;;;4.35;2.97;;;;;;;23.09;44.89;100557.38;20463823;28;97892;-77
2022/04/16 01:02:42;;;;;;;3.75;2.90;;;;;;;23.06;44.86;100563.75;20464980;28;97728;-77
2022/04/16 01:12:43;;;;;;;3.77;2.93;;;;;;;23.02;44.84;100546.47;20469882;28;97499;-76
2022/04/16 01:22:45;;;;;;;2.87;2.47;;;;;;;23.02;44.96;100557.03;20461962;28;97490;-77
2022/04/16 01:32:48;;;;;;;2.90;2.60;;;;;;;22.99;44.78;100552.03;20462754;28;97516;-77
2022/04/16 01:42:49;;;;;;;3.03;2.30;;;;;;;22.97;44.96;100546.00;20460982;28;100029;-77
2022/04/16 01:52:49;;;;;;;2.70;2.20;;;;;;;22.95;44.58;100532.09;20452060;28;101687;-76
2022/04/16 02:02:50;;;;;;;4.13;2.10;;;;;;;22.94;44.79;100520.72;20451434;28;101126;-76
2022/04/16 02:12:51;;;;;;;3.88;2.20;;;;;;;22.93;44.40;100526.94;20466766;28;98039;-77
2022/04/16 02:22:54;;;;;;;2.58;2.38;;;;;;;22.89;44.49;100507.06;20457073;28;97312;-77
2022/04/16 02:32:55;;;;;;;3.10;2.28;;;;;;;22.88;44.76;100499.28;20458849;28;97481;-77
2022/04/16 02:42:55;;;;;;;3.17;2.20;;;;;;;22.86;44.63;100512.56;20455071;28;99299;-77
2022/04/16 02:52:56;;;;;;;4.22;2.42;;;;;;;22.85;44.55;100508.25;20457205;28;97250;-76
2022/04/16 03:02:57;;;;;;;3.60;2.40;;;;;;;22.82;44.64;100500.59;20446144;28;97380;-76
2022/04/16 03:12:57;;;;;;;2.85;2.50;;;;;;;22.81;44.65;100499.78;20461150;28;97258;-76
2022/04/16 03:22:59;;;;;;;2.45;2.22;;;;;;;22.81;44.36;100498.91;20448899;28;98583;-77
2022/04/16 03:33:00;;;;;;;3.40;2.27;;;;;;;22.78;44.47;100500.03;20451282;28;101609;-76
2022/04/16 03:43:02;;;;;;;2.80;2.17;;;;;;;22.77;44.50;100497.50;20451974;28;98762;-77
2022/04/16 03:53:03;;;;;;;2.63;2.23;;;;;;;22.75;44.56;100499.44;20444447;28;98859;-77
2022/04/16 04:03:04;;;;;;;2.30;2.10;;;;;;;22.72;44.36;100511.09;20456858;28;98557;-77
2022/04/16 04:13:05;;;;;;;2.80;2.20;;;;;;;22.71;44.05;100514.69;20452964;28;98519;-78
2022/04/16 04:23:06;;;;;;;2.15;1.95;;;;;;;22.71;44.24;100519.97;20442424;28;100539;-77
2022/04/16 04:33:07;;;;;;;2.10;1.80;;;;;;;22.69;44.23;100538.56;20449793;28;97065;-77
2022/04/16 04:43:08;;;;;;;2.35;1.90;;;;;;;22.70;44.05;100547.31;20464733;28;97668;-77
2022/04/16 04:53:08;;;;;;;3.65;2.05;;;;;;;22.71;44.61;100554.28;20441704;28;100432;-78
2022/04/16 05:03:09;;;;;;;4.05;1.80;;;;;;;22.69;44.17;100550.91;20462223;28;99649;-77
2022/04/16 05:13:09;;;;;;;2.17;1.98;;;;;;;22.66;44.46;100552.00;20460343;28;99343;-78
2022/04/16 05:23:10;;;;;;;3.15;1.85;;;;;;;22.66;43.82;100573.13;20473416;28;97646;-77
2022/04/16 05:34:18;;;;;;;2.25;2.03;;;;;;;22.64;44.22;100580.34;20391281;28;97723;-76
2022/04/16 05:43:37;;;;;;;2.42;1.65;;;;;;;22.64;44.11;100584.78;20388202;28;98486;-78
2022/04/16 05:53:39;;;;;;;3.05;1.90;;;;;;;22.64;43.88;100595.31;20393510;28;97600;-78
2022/04/16 06:03:40;;;;;;;2.00;1.80;;;;;;;22.64;43.86;100603.25;20385741;28;97581;-79
2022/04/16 06:13:40;;;;;;;2.70;2.50;;;;;;;22.60;42.86;100620.31;20376910;28;99574;-79
2022/04/16 06:23:41;;;;;;;4.55;2.10;;;;;;;22.61;43.44;100620.16;20372944;28;98184;-81
2022/04/16 06:33:42;;;;;;;9.82;3.28;;;;;;;22.66;44.27;100628.56;20376020;28;98697;-82
2022/04/16 06:43:44;;;;;;;6.35;3.20;;;;;;;22.66;45.19;100636.47;20396535;28;98892;-81
2022/04/16 06:53:44;;;;;;;8.82;3.70;;;;;;;22.69;45.09;100641.53;20410817;28;97309;-81
2022/04/16 07:03:45;;;;;;;8.93;3.67;;;;;;;22.73;44.85;100650.03;20380163;28;99569;-81
2022/04/16 07:13:45;;;;;;;4.72;3.50;;;;;;;22.76;45.16;100662.97;20368370;28;97747;-80
2022/04/16 07:23:47;;;;;;;5.68;3.50;;;;;;;22.78;43.80;100674.25;20340217;28;100507;-77
2022/04/16 07:33:52;;;;;;;3.92;3.15;;;;;;;22.73;40.84;100681.72;20372052;28;98595;-77
2022/04/16 07:43:53;;;;;;;5.07;2.88;;;;;;;22.71;41.06;100673.06;20346938;28;97660;-76
2022/04/16 07:53:55;;;;;;;12.43;3.40;;;;;;;22.77;42.52;100667.28;20347576;28;99494;-75
2022/04/16 08:03:56;;;;;;;;;;;;;;;22.81;42.67;100662.59;20355652;28;100826;-77
2022/04/16 08:13:57;;;;;;;15.07;4.25;;;;;;;22.82;42.78;100669.56;20387195;28;97183;-77
2022/04/16 08:24:13;;;;;;;16.38;4.32;;;;;;;22.85;43.07;100677.22;20391409;28;97870;-78
2022/04/16 08:34:14;;;;;;;12.27;4.05;;;;;;;22.87;42.83;100691.16;20393358;28;97041;-75
2022/04/16 08:44:19;;;;;;;15.70;4.57;;;;;;;22.88;43.46;100692.00;20383870;28;97991;-78
2022/04/16 08:54:19;;;;;;;25.73;4.88;;;;;;;22.92;43.56;100698.72;20364101;28;100198;-76
2022/04/16 09:04:21;;;;;;;26.60;4.63;;;;;;;22.89;43.76;100696.31;20385372;28;97633;-77
2022/04/16 09:14:51;;;;;;;4.67;2.73;;;;;;;21.85;34.69;100691.94;20366827;28;97140;-78
2022/04/16 09:24:51;;;;;;;5.88;2.47;;;;;;;22.24;35.96;100696.91;20447384;28;99020;-75
2022/04/16 09:34:52;;;;;;;2.75;2.20;;;;;;;22.34;37.67;100703.16;20459241;28;97674;-75
2022/04/16 09:44:53;;;;;;;3.05;2.22;;;;;;;22.44;38.54;100716.50;20457537;28;101333;-76
2022/04/16 09:54:59;;;;;;;3.20;2.10;;;;;;;22.49;39.29;100702.97;20462626;28;97240;-75
2022/04/16 10:05:00;;;;;;;2.80;2.10;;;;;;;22.56;40.96;100712.06;20401749;28;98638;-79
2022/04/16 10:15:08;;;;;;;3.08;1.95;;;;;;;22.60;40.46;100700.31;20373926;28;100157;-79
2022/04/16 10:25:09;;;;;;;5.55;2.25;;;;;;;22.64;39.04;100703.53;20412225;28;100986;-78
2022/04/16 10:35:14;;;;;;;8.60;2.47;;;;;;;22.00;34.29;100697.81;20382410;28;99368;-79
2022/04/16 10:45:14;;;;;;;6.60;3.33;;;;;;;22.12;35.15;100696.06;20356370;28;99896;-78
2022/04/16 10:55:16;;;;;;;15.63;5.50;;;;;;;22.36;37.09;100690.69;20331533;28;100973;-75
2022/04/16 11:05:17;;;;;;;11.80;4.33;;;;;;;22.46;37.27;100696.13;20325472;28;101300;-75
2022/04/16 11:15:24;;;;;;;5.72;2.30;;;;;;;21.97;34.80;100695.44;20343576;28;98497;-74
2022/04/16 11:25:25;;;;;;;1.63;1.30;;;;;;;21.77;34.67;100699.56;20341506;28;98397;-80
2022/04/16 11:35:26;;;;;;;3.95;1.42;;;;;;;22.11;37.28;100712.00;20364148;28;97690;-77
2022/04/16 11:45:31;;;;;;;4.88;1.52;;;;;;;22.29;39.12;100701.81;20364616;28;97125;-78
2022/04/16 11:55:32;;;;;;;6.13;2.15;;;;;;;22.45;41.04;100689.16;20369488;28;97287;-78
2022/04/16 12:05:33;;;;;;;4.38;1.73;;;;;;;22.58;42.58;100681.09;20389779;28;98116;-78
2022/04/16 12:15:34;;;;;;;11.35;1.70;;;;;;;22.67;43.72;100667.19;20357606;28;97894;-78
2022/04/16 12:25:35;;;;;;;2.60;1.42;;;;;;;22.74;44.51;100658.78;20339751;28;97130;-78
2022/04/16 12:35:45;;;;;;;4.82;1.40;;;;;;;22.78;45.58;100658.41;20345394;28;97723;-79
2022/04/16 12:45:46;;;;;;;6.03;1.60;;;;;;;22.82;45.41;100654.56;20340668;28;100983;-77
2022/04/16 12:55:46;;;;;;;5.30;1.50;;;;;;;22.80;40.36;100653.00;20328265;28;97062;-78
2022/04/16 13:05:47;;;;;;;3.53;1.38;;;;;;;22.74;37.58;100651.72;20345765;28;101639;-77
2022/04/16 13:15:48;;;;;;;3.00;1.25;;;;;;;22.68;36.67;100655.66;20344158;28;98727;-78
2022/04/16 13:25:51;;;;;;;1.45;0.98;;;;;;;22.65;36.79;100661.19;20374256;28;96997;-78
2022/04/16 13:35:51;;;;;;;2.97;1.10;;;;;;;22.61;37.46;100680.88;20378668;28;100845;-75
2022/04/16 13:45:52;;;;;;;6.38;1.08;;;;;;;22.60;37.52;100676.56;20373565;28;97284;-77
2022/04/16 13:55:52;;;;;;;5.53;1.30;;;;;;;22.60;38.49;100671.28;20388540;28;98812;-77
2022/04/16 14:05:53;;;;;;;4.03;1.45;;;;;;;22.61;38.60;100690.59;20350568;28;100059;-77
2022/04/16 14:15:54;;;;;;;3.20;1.40;;;;;;;22.58;39.41;100702.22;20383713;28;97360;-77
2022/04/16 14:25:55;;;;;;;2.43;1.57;;;;;;;22.58;39.54;100701.38;20374944;28;97663;-76
2022/04/16 14:35:55;;;;;;;3.42;1.98;;;;;;;22.45;40.54;100728.75;20356124;28;96909;-76
2022/04/16 14:45:57;;;;;;;7.00;1.80;;;;;;;22.48;39.52;100728.47;20382216;28;99606;-77
2022/04/16 14:55:58;;;;;;;7.50;2.17;;;;;;;22.55;42.91;100726.22;20356606;28;98356;-76
2022/04/16 15:06:00;;;;;;;5.10;2.13;;;;;;;22.59;40.72;100753.22;20338367;28;98495;-74
2022/04/16 15:16:01;;;;;;;5.33;2.20;;;;;;;22.63;43.08;100755.50;20381343;28;101426;-74
2022/04/16 15:26:05;;;;;;;8.20;2.65;;;;;;;22.75;43.54;100761.59;20410351;28;97972;-77
2022/04/16 15:36:05;;;;;;;10.32;3.20;;;;;;;22.80;44.61;100762.09;20421483;28;100106;-77
2022/04/16 15:46:06;;;;;;;9.05;3.20;;;;;;;22.82;44.65;100776.00;20405464;28;100740;-78
2022/04/16 15:56:06;;;;;;;7.72;3.35;;;;;;;22.84;44.97;100779.38;20401249;28;102411;-78
2022/04/16 16:06:07;;;;;;;9.88;2.83;;;;;;;22.86;45.18;100782.75;20414220;28;97051;-77
2022/04/16 16:16:09;;;;;;;7.23;2.83;;;;;;;22.88;45.16;100795.00;20425177;28;96935;-78
2022/04/16 16:26:09;;;;;;;6.83;2.97;;;;;;;22.89;45.63;100808.06;20404874;28;98428;-76
2022/04/16 16:36:10;;;;;;;5.90;3.03;;;;;;;22.90;45.58;100827.38;20430268;28;97703;-78
2022/04/16 16:46:10;;;;;;;4.47;2.47;;;;;;;22.90;45.59;100836.16;20435243;28;97622;-78
2022/04/16 16:56:11;;;;;;;10.10;2.70;;;;;;;22.93;45.90;100845.63;20445596;28;97218;-81
2022/04/16 17:06:12;;;;;;;9.43;2.97;;;;;;;22.94;45.41;100874.56;20454115;28;97815;-77
2022/04/16 17:26:33;;;;;;;10.75;2.90;;;;;;;22.93;46.00;100927.50;20449633;28;98713;-78
2022/04/16 17:36:34;;;;;;;12.60;3.13;;;;;;;22.88;46.00;100948.16;20459599;28;97122;-78
2022/04/16 17:46:34;;;;;;;14.90;3.40;;;;;;;22.75;43.66;100974.63;20472183;28;96970;-77
2022/04/16 17:56:35;;;;;;;7.10;3.00;;;;;;;22.73;44.45;100993.22;20463425;28;98344;-77
2022/04/16 18:06:38;;;;;;;10.52;3.38;;;;;;;22.75;45.30;101020.31;20475474;28;97765;-78
2022/04/16 18:16:40;;;;;;;8.95;2.83;;;;;;;22.79;45.79;101047.34;20475459;28;97559;-79
2022/04/16 18:26:41;;;;;;;8.03;3.40;;;;;;;22.79;45.97;101066.69;20473044;28;96941;-77
2022/04/16 18:36:42;;;;;;;7.10;2.60;;;;;;;22.81;45.76;101098.25;20467653;28;97453;-78
2022/04/16 18:46:43;;;;;;;8.13;2.65;;;;;;;22.80;46.29;101104.47;20447215;28;97469;-78
2022/04/16 18:56:44;;;;;;;12.25;4.18;;;;;;;22.80;45.97;101118.53;20444503;28;97547;-78
2022/04/16 19:06:51;;;;;;;8.80;4.50;;;;;;;22.77;45.84;101121.41;20437031;28;99585;-81
2022/04/16 19:16:53;;;;;;;9.65;4.10;;;;;;;22.61;43.13;101118.19;20443483;28;98255;-80
2022/04/16 19:26:55;;;;;;;;;;;;;;;22.60;43.84;101133.16;20453068;28;98899;-80
2022/04/16 19:36:56;;;;;;;8.57;3.65;;;;;;;22.61;43.93;101137.50;20449342;28;97333;-82
2022/04/16 19:47:00;;;;;;;5.13;3.53;;;;;;;22.61;44.48;101152.50;20452172;28;97715;-82
2022/04/16 19:57:02;;;;;;;7.93;3.88;;;;;;;22.61;44.58;101171.00;20465049;28;97203;-82
2022/04/16 20:07:02;;;;;;;6.47;3.67;;;;;;;22.59;44.56;101188.72;20455891;28;98799;-82
2022/04/16 20:17:05;;;;;;;4.97;3.45;;;;;;;22.57;45.03;101191.47;20474682;28;97674;-82
2022/04/16 20:27:07;;;;;;;7.35;3.83;;;;;;;22.56;44.86;101200.34;20477417;28;98314;-81
2022/04/16 20:37:10;;;;;;;7.37;3.50;;;;;;;22.54;45.00;101211.00;20480656;28;98848;-81
2022/04/16 20:47:10;;;;;;;4.55;3.22;;;;;;;22.53;45.11;101219.03;20490124;28;96954;-81
2022/04/16 20:57:14;;;;;;;4.90;2.80;;;;;;;22.52;44.99;101210.28;20478492;28;96915;-82
2022/04/16 21:07:15;;;;;;;3.53;2.80;;;;;;;22.51;45.02;101208.56;20479896;28;99486;-81
2022/04/16 21:17:16;;;;;;;4.05;2.90;;;;;;;22.51;44.88;101203.31;20477269;28;97579;-82
2022/04/16 21:27:17;;;;;;;5.25;2.72;;;;;;;22.49;44.84;101218.38;20484898;28;97352;-81
2022/04/16 21:37:17;;;;;;;3.25;2.65;;;;;;;22.49;44.60;101226.31;20464813;28;99149;-81
2022/04/16 21:47:18;;;;;;;3.85;2.47;;;;;;;22.48;44.40;101234.34;20486102;28;97221;-80
2022/04/16 21:57:18;;;;;;;4.30;2.85;;;;;;;22.47;44.07;101245.84;20485242;28;98112;-81
2022/04/16 22:07:19;;;;;;;3.00;2.50;;;;;;;22.45;44.20;101242.44;20475552;28;96959;-81
2022/04/16 22:17:20;;;;;;;2.97;2.28;;;;;;;22.44;43.69;101248.72;20474973;28;96919;-80
2022/04/16 22:27:23;;;;;;;4.93;2.75;;;;;;;22.43;43.79;101250.47;20473008;28;98296;-81
2022/04/16 22:47:48;;;;;;;2.95;2.25;;;;;;;22.38;43.53;101261.34;20401954;28;96654;-84
2022/04/16 22:57:49;;;;;;;4.15;2.10;;;;;;;22.37;43.19;101261.44;20393820;28;100400;-81
2022/04/16 23:07:49;;;;;;;2.67;2.05;;;;;;;22.35;43.59;101245.72;20394933;28;97296;-81
2022/04/16 23:17:52;;;;;;;2.30;2.10;;;;;;;22.35;43.47;101252.78;20388977;28;97201;-82
2022/04/16 23:27:53;;;;;;;2.50;2.30;;;;;;;22.33;43.39;101263.44;20393958;28;97103;-82
2022/04/16 23:37:54;;;;;;;3.15;2.40;;;;;;;22.32;43.44;101258.28;20387532;28;97966;-81
2022/04/16 23:47:55;;;;;;;2.75;2.15;;;;;;;22.32;43.40;101255.63;20391660;28;97206;-80
2022/04/16 23:57:55;;;;;;;3.25;2.20;;;;;;;22.30;43.11;101260.16;20388708;28;96931;-80
